x

West Moresby (46208) Wave Buoy

12:00pm - Fri 29th Aug 2014 All times are PDT. -7 hours from GMT.

  • Sig Wave height 8.5ft
  • Peak Period 8s
  • Wind
    22mph, 31mph gusts
  • Sea Temp 62°f
  • Air Temp 59°f
  • Sea Pressure 1005.5mb
  • West Moresby
  • West Moresby

More Historic Weather Station data

Upgrade to MSW Pro to gain access to the past 30 days of data for over 8000 Wavebouys and Weather Stations around the globe.

Join Pro

Comparision Forecast

View Surf forecast
   
Fri 08/29 12:00pm 8.5ft 8s 22 31 mph 1005.5mb 62f 59f
11:00am 8ft 8s 18 22 mph 1005.7mb 62f 60f
10:00am 8ft 8s 18 22 mph 1005.8mb 62f 61f
9:00am 8.5ft 8s 18 22 mph 1005.9mb 62f 61f
8:00am 8ft 7s 16 22 mph 1005.8mb 62f 60f
7:00am 8ft 8s 16 18 mph 1005.9mb 62f 61f
6:00am 7ft 8s 18 20 mph 1006mb 62f 61f
5:00am 7ft 7s 13 18 mph 1006.4mb 62f 61f
4:00am 7ft 7s 18 20 mph 1006.8mb 62f 60f
3:00am 7ft 7s 18 20 mph 1007.4mb 62f 61f
2:00am 6.5ft 7s 18 22 mph 1008.2mb 61f 61f
1:00am 6.5ft 6s 20 25 mph 1008.7mb 61f 60f
12:00am 6.5ft 7s 18 22 mph 1009.5mb 62f 59f
Thu 08/28 11:00pm 6ft 5s 22 25 mph 1010.3mb 62f 59f
10:00pm 6ft 5s 20 27 mph 1011.1mb 62f 59f
9:00pm 5.5ft 5s 18 27 mph 1012mb 62f 58f
8:00pm 5.5ft 9s 20 22 mph 1012.8mb 62f 59f
7:00pm 5ft 9s 18 22 mph 1013.5mb 62f 58f
6:00pm 5ft 9s 20 25 mph 1014.2mb 62f 58f
5:00pm 4.5ft 10s 20 25 mph 1014.8mb 62f 59f
4:00pm 4.5ft 10s 13 16 mph 1015.6mb 62f 57f
3:00pm 4.5ft 10s 18 22 mph 1015.7mb 62f 61f
2:00pm 4.5ft 10s 16 18 mph 1016.4mb 62f 61f
1:00pm 4.5ft 10s 11 16 mph 1016.9mb 62f 61f
12:00pm 4.5ft 10s 11 13 mph 1017.4mb 62f 61f
11:00am 4.5ft 10s 9 11 mph 1018mb 62f 61f
10:00am 4.5ft 10s 9
mph
1018.1mb 62f 61f
9:00am 4.5ft 10s 4 9 mph 1018.3mb 62f 61f
8:00am 5ft 11s 4 7 mph 1018.5mb 62f 60f
7:00am 5ft 11s 4 7 mph 1018.6mb 62f 60f
6:00am 5ft 10s 4
mph
1018.8mb 62f 60f
5:00am 4.5ft 10s 2
mph
1019.1mb 62f 60f
4:00am 5ft 10s 2 4 mph 1019.4mb 62f 60f
3:00am 5ft 10s 7
mph
1019.5mb 62f 60f
2:00am 5ft 10s 7 9 mph 1019.6mb 62f 60f
1:00am 5ft 9s 9 11 mph 1019.8mb 62f 60f
12:00am 5ft 9s 9 11 mph 1019.8mb 62f 60f
Wed 08/27 11:00pm 5ft 10s 9 11 mph 1020.1mb 62f 61f
10:00pm 5ft 10s 11 13 mph 1020.3mb 62f 61f
9:00pm 5ft 10s 13 16 mph 1020.2mb 62f 61f
8:00pm 5ft 10s 11 13 mph 1020mb 63f 61f
7:00pm 5ft 11s 11 13 mph 1020mb 63f 61f
6:00pm 5ft 10s 11 13 mph 1020.3mb 63f 61f
5:00pm 4.5ft 10s 11 13 mph 1020.3mb 63f 61f
4:00pm 4.5ft 9s 13
mph
1020.7mb 63f 62f
3:00pm 4.5ft 8s 9 11 mph 1020.7mb 63f 62f
2:00pm 4.5ft 11s 9 11 mph 1020.6mb 63f 61f
1:00pm 4.5ft 9s 7 9 mph 1020.6mb 63f 61f
12:00pm 4.5ft 10s 7 9 mph 1020.6mb 63f 61f
11:00am 5ft 10s 7 9 mph 1020.6mb 62f 61f
10:00am 5ft 10s 9 11 mph 1020.5mb 62f 61f
9:00am 5.5ft 10s 9 11 mph 1020.2mb 62f 61f
8:00am 5ft 10s 9 11 mph 1020.1mb 62f 61f
7:00am 5ft 10s 7 9 mph 1019.8mb 62f 61f
6:00am 4.5ft 11s 7 9 mph 1019.5mb 62f 60f
5:00am 4.5ft 11s 7 9 mph 1019.4mb 62f 60f
4:00am 4ft 9s 9 11 mph 1019.1mb 62f 60f
3:00am 4ft 15s 9
mph
1019mb 62f 60f
2:00am 4ft 9s 7 9 mph 1019mb 62f 60f
1:00am 4ft 8s 7 9 mph 1019.2mb 62f 60f
12:00am 4.5ft 9s 7 9 mph 1019.2mb 62f 60f
Tue 08/26 11:00pm 4ft 8s 7 9 mph 1019.3mb 62f 60f
10:00pm 4ft 9s 7 9 mph 1019.3mb 62f 61f
9:00pm 4ft 8s 2 4 mph 1019.2mb 63f 61f
8:00pm 4.5ft 14s 4
mph
1019.3mb 63f 61f
7:00pm 4.5ft 8s 2 4 mph 1019.1mb 63f 61f
6:00pm 4.5ft 9s 4 7 mph 1019.3mb 63f 61f
5:00pm 4.5ft 9s 4 7 mph 1019.3mb 63f 61f
4:00pm 4.5ft 9s 7 9 mph 1019.5mb 63f 62f
3:00pm 4.5ft 8s 9
mph
1019.7mb 63f 61f
2:00pm 4.5ft 7s 9 11 mph 1019.7mb 63f 61f
1:00pm 4.5ft 9s 9 11 mph 1019.6mb 62f 61f
12:00pm 4.5ft 8s 11 13 mph 1019.3mb 62f 61f
11:00am 4.5ft 10s 13 16 mph 1018.9mb 62f 61f
10:00am 4.5ft 7s 13 16 mph 1018.5mb 62f 61f
9:00am 4.5ft 8s 13 16 mph 1018.4mb 62f 61f
8:00am 4.5ft 8s 16 18 mph 1018mb 62f 61f
7:00am 5ft 9s 13 16 mph 1017.7mb 62f 61f
6:00am 5ft 8s 9 11 mph 1017.3mb 62f 61f
5:00am 5ft 9s 11 13 mph 1017.1mb 62f 60f
4:00am 5ft 8s 9 11 mph 1017mb 62f 60f
3:00am 6ft 8s 9 11 mph 1016.8mb 62f 61f
2:00am 5.5ft 8s 9 11 mph 1016.8mb 62f 61f
1:00am 5ft 8s 9 13 mph 1016.6mb 62f 61f
12:00am 5ft 8s 9
mph
1016.6mb 62f 61f
Mon 08/25 11:00pm 5ft 8s 4
mph
1016.8mb 62f 61f
10:00pm 5ft 8s 7
mph
1016.7mb 63f 61f
9:00pm 5ft 8s 9 11 mph 1016.8mb 63f 60f